createdAt,value
2018-05-31T00:00:11.417Z,12.87
2018-05-31T00:02:40.277Z,15.57
2018-05-31T00:05:09.115Z,14.97
2018-05-31T00:07:38.000Z,13.77
2018-05-31T00:10:06.849Z,13.67
2018-05-31T00:12:35.738Z,13.43
2018-05-31T00:15:04.726Z,14.20
2018-05-31T00:17:33.564Z,14.60
2018-05-31T00:20:02.417Z,15.77
2018-05-31T00:22:31.276Z,15.00
2018-05-31T00:25:00.103Z,19.23
2018-05-31T00:27:28.973Z,19.80
2018-05-31T00:29:59.043Z,18.77
2018-05-31T00:32:27.886Z,22.07
2018-05-31T00:34:56.717Z,20.40
2018-05-31T00:37:26.945Z,18.00
2018-05-31T00:39:55.835Z,16.67
2018-05-31T00:42:24.670Z,17.90
2018-05-31T00:44:53.517Z,21.47
2018-05-31T00:47:23.638Z,21.73
2018-05-31T00:49:52.465Z,23.13
2018-05-31T00:52:21.292Z,22.47
2018-05-31T00:54:52.045Z,22.43
2018-05-31T00:57:20.878Z,20.83
2018-05-31T00:59:49.813Z,26.00
2018-05-31T01:02:18.690Z,29.97
2018-05-31T01:04:47.557Z,27.93
2018-05-31T01:07:16.392Z,35.97
2018-05-31T01:09:45.273Z,37.15
2018-05-31T01:12:14.126Z,30.63
2018-05-31T01:14:44.607Z,30.83
2018-05-31T01:17:13.447Z,30.43
2018-05-31T01:19:42.338Z,25.47
2018-05-31T01:22:12.606Z,30.88
2018-05-31T01:24:41.465Z,34.33
2018-05-31T01:27:10.380Z,31.00
2018-05-31T01:29:39.172Z,31.73
2018-05-31T01:32:09.699Z,33.30
2018-05-31T01:34:38.478Z,38.00
2018-05-31T01:37:07.331Z,41.93
2018-05-31T01:39:37.821Z,40.27
2018-05-31T01:42:06.681Z,39.03
2018-05-31T01:44:35.564Z,40.83
2018-05-31T01:47:04.461Z,46.07
2018-05-31T01:49:33.313Z,51.90
2018-05-31T01:52:02.142Z,51.00
2018-05-31T01:54:31.000Z,44.00
2018-05-31T01:56:59.821Z,55.88
2018-05-31T01:59:29.872Z,53.53
2018-05-31T02:01:58.728Z,55.35
2018-05-31T02:04:27.646Z,49.40
2018-05-31T02:06:56.520Z,49.10
2018-05-31T02:09:25.384Z,53.07
2018-05-31T02:11:54.276Z,52.50
2018-05-31T02:14:23.093Z,49.17
2018-05-31T02:16:52.035Z,51.17
2018-05-31T02:19:20.873Z,55.20
2018-05-31T02:21:49.745Z,54.43
2018-05-31T02:24:18.609Z,54.30
2018-05-31T02:26:47.508Z,55.75
2018-05-31T02:29:16.422Z,52.27
2018-05-31T02:31:45.313Z,52.07
2018-05-31T02:34:14.181Z,48.57
2018-05-31T02:36:43.049Z,54.03
2018-05-31T02:39:12.065Z,51.37
2018-05-31T02:41:40.899Z,56.57
2018-05-31T02:44:09.767Z,52.23
2018-05-31T02:46:38.600Z,53.73
2018-05-31T02:49:07.457Z,50.27
2018-05-31T02:51:36.342Z,51.77
2018-05-31T02:54:05.223Z,52.00
2018-05-31T02:56:34.151Z,54.17
2018-05-31T02:59:03.013Z,61.68
2018-05-31T03:01:31.868Z,54.33
2018-05-31T03:04:00.741Z,55.20
2018-05-31T03:06:29.592Z,53.77
2018-05-31T03:08:58.460Z,50.17
2018-05-31T03:11:27.326Z,53.00
2018-05-31T03:13:56.203Z,59.98
2018-05-31T03:16:25.041Z,53.93
2018-05-31T03:18:53.929Z,53.10
2018-05-31T03:21:22.793Z,58.30
2018-05-31T03:23:51.649Z,59.87
2018-05-31T03:26:20.513Z,57.40
2018-05-31T03:28:49.476Z,56.90
2018-05-31T03:31:18.370Z,53.10
2018-05-31T03:33:47.238Z,55.60
2018-05-31T03:36:16.101Z,64.85
2018-05-31T03:38:44.944Z,58.37
2018-05-31T03:41:13.807Z,61.13
2018-05-31T03:43:42.667Z,55.80
2018-05-31T03:46:11.540Z,55.07
2018-05-31T03:48:40.394Z,58.63
2018-05-31T03:51:09.218Z,58.07
2018-05-31T03:53:38.079Z,54.03
2018-05-31T03:56:06.888Z,59.60
2018-05-31T03:58:35.756Z,59.60
2018-05-31T04:01:04.633Z,69.47
2018-05-31T04:03:33.453Z,62.17
2018-05-31T04:06:02.304Z,59.93
2018-05-31T04:08:31.148Z,62.87
2018-05-31T04:11:00.013Z,57.03
2018-05-31T04:13:28.898Z,60.00
2018-05-31T04:15:57.737Z,73.78
2018-05-31T04:18:26.559Z,65.43
2018-05-31T04:20:55.404Z,62.70
2018-05-31T04:23:24.249Z,61.77
2018-05-31T04:25:53.091Z,59.90
2018-05-31T04:28:21.930Z,67.23
2018-05-31T04:30:50.758Z,68.50
2018-05-31T04:33:19.628Z,69.87
2018-05-31T04:35:48.469Z,65.73
2018-05-31T04:38:20.535Z,64.70
2018-05-31T04:40:49.369Z,73.28
2018-05-31T04:43:18.205Z,66.90
2018-05-31T04:45:47.069Z,75.78
2018-05-31T04:48:15.936Z,63.63
2018-05-31T04:50:44.784Z,64.40
2018-05-31T04:53:13.660Z,70.40
2018-05-31T04:55:42.461Z,70.10
2018-05-31T04:58:11.318Z,66.77
2018-05-31T05:00:40.166Z,68.33
2018-05-31T05:03:08.996Z,69.77
2018-05-31T05:05:37.845Z,69.63
2018-05-31T05:08:06.678Z,66.77
2018-05-31T05:10:35.539Z,64.27
2018-05-31T05:13:04.538Z,62.00
2018-05-31T05:15:33.373Z,64.67
2018-05-31T05:18:02.249Z,65.30
2018-05-31T05:20:31.085Z,66.23
2018-05-31T05:22:59.967Z,69.87
2018-05-31T05:25:28.799Z,67.13
2018-05-31T05:27:57.632Z,66.47
2018-05-31T05:30:26.483Z,65.67
2018-05-31T05:32:55.371Z,63.87
2018-05-31T05:35:24.268Z,65.73
2018-05-31T05:37:53.147Z,65.70
2018-05-31T05:40:22.015Z,66.93
2018-05-31T05:42:50.854Z,67.93
2018-05-31T05:45:19.721Z,65.87
2018-05-31T05:47:48.574Z,65.97
2018-05-31T05:50:17.447Z,63.73
2018-05-31T05:52:46.359Z,60.87
2018-05-31T05:55:15.211Z,61.50
2018-05-31T05:57:44.066Z,61.57
2018-05-31T06:00:12.907Z,57.87
2018-05-31T06:02:41.779Z,58.67
2018-05-31T06:05:10.616Z,56.83
2018-05-31T06:07:39.482Z,57.63
2018-05-31T06:10:08.361Z,56.17
2018-05-31T06:12:37.200Z,57.30
2018-05-31T06:15:06.095Z,55.97
2018-05-31T06:17:34.928Z,55.17
2018-05-31T06:20:03.808Z,57.60
2018-05-31T06:22:32.643Z,53.20
2018-05-31T06:25:01.499Z,55.53
2018-05-31T06:27:30.341Z,55.63
2018-05-31T06:29:59.214Z,54.47
2018-05-31T06:32:28.073Z,54.73
2018-05-31T06:34:56.960Z,52.78
2018-05-31T06:37:25.894Z,50.78
2018-05-31T06:39:54.746Z,50.80
2018-05-31T06:42:23.647Z,49.95
2018-05-31T06:44:52.502Z,49.48
2018-05-31T06:47:21.316Z,48.68
2018-05-31T06:49:50.260Z,47.78
2018-05-31T06:52:19.171Z,50.83
2018-05-31T06:54:48.160Z,50.98
2018-05-31T06:57:17.722Z,51.15
2018-05-31T06:59:46.614Z,50.08
2018-05-31T07:02:15.471Z,52.08
2018-05-31T07:04:44.357Z,51.30
2018-05-31T07:07:13.373Z,49.88
2018-05-31T07:09:45.279Z,49.42
2018-05-31T07:12:17.107Z,46.77
2018-05-31T07:14:43.948Z,44.85
2018-05-31T07:17:17.792Z,44.80
2018-05-31T07:19:45.618Z,46.63
2018-05-31T07:22:15.123Z,46.50
2018-05-31T07:24:46.241Z,44.40
2018-05-31T07:27:18.034Z,44.65
2018-05-31T07:29:47.199Z,41.18
2018-05-31T07:32:19.276Z,42.35
2018-05-31T07:34:48.979Z,41.48
2018-05-31T07:37:18.086Z,41.18
2018-05-31T07:39:47.290Z,39.83
2018-05-31T07:42:16.556Z,39.27
2018-05-31T07:44:45.422Z,36.63
2018-05-31T07:47:16.496Z,31.52
2018-05-31T07:49:45.924Z,32.95
2018-05-31T07:52:15.220Z,30.75
2018-05-31T07:54:47.428Z,27.25
2018-05-31T07:57:19.348Z,26.25
2018-05-31T07:59:48.469Z,31.00
2018-05-31T08:02:20.399Z,31.07
2018-05-31T08:04:49.442Z,28.73
2018-05-31T08:07:19.852Z,31.20
2018-05-31T08:09:50.530Z,32.93
2018-05-31T08:12:20.878Z,31.23
2018-05-31T08:14:53.739Z,30.43
2018-05-31T08:17:28.318Z,29.00
2018-05-31T08:20:02.669Z,31.02
2018-05-31T08:22:33.377Z,31.60
2018-05-31T08:25:02.826Z,29.27
2018-05-31T08:27:34.464Z,30.27
2018-05-31T08:30:03.900Z,29.25
2018-05-31T08:32:34.139Z,32.48
2018-05-31T08:35:03.303Z,30.35
2018-05-31T08:37:32.399Z,29.72
2018-05-31T08:40:01.595Z,30.23
2018-05-31T08:42:30.979Z,28.77
2018-05-31T08:45:00.386Z,29.02
2018-05-31T08:47:29.691Z,29.87
2018-05-31T08:49:58.743Z,36.53
2018-05-31T08:52:27.949Z,35.92
2018-05-31T08:55:00.171Z,38.50
2018-05-31T08:57:29.303Z,42.25
2018-05-31T08:59:58.690Z,44.80
2018-05-31T09:02:27.789Z,47.05
2018-05-31T09:04:56.962Z,44.27
2018-05-31T09:07:26.439Z,47.65
2018-05-31T09:09:55.813Z,45.35
2018-05-31T09:12:27.847Z,56.35
2018-05-31T09:15:00.407Z,55.70
2018-05-31T09:17:29.544Z,56.33
2018-05-31T09:19:58.583Z,63.02
2018-05-31T09:22:27.925Z,55.90
2018-05-31T09:24:57.180Z,57.98
2018-05-31T09:27:26.721Z,55.05
2018-05-31T09:29:59.465Z,53.55
2018-05-31T09:32:30.342Z,55.08
2018-05-31T09:34:59.412Z,54.10
2018-05-31T09:37:28.443Z,53.35
2018-05-31T09:40:02.059Z,54.42
2018-05-31T09:42:31.590Z,53.98
2018-05-31T09:45:01.409Z,59.38
2018-05-31T09:47:33.532Z,53.63
2018-05-31T09:50:02.997Z,54.93
2018-05-31T09:52:33.667Z,52.55
2018-05-31T09:55:03.091Z,50.17
2018-05-31T09:57:32.311Z,51.30
2018-05-31T10:00:01.760Z,49.03
2018-05-31T10:02:34.902Z,49.20
2018-05-31T10:05:04.485Z,49.27
2018-05-31T10:07:34.398Z,47.43
2018-05-31T10:10:03.614Z,49.10
2018-05-31T10:12:33.335Z,48.23
2018-05-31T10:15:02.574Z,47.65
2018-05-31T10:17:34.908Z,46.05
2018-05-31T10:20:04.038Z,48.48
2018-05-31T10:22:33.237Z,44.25
2018-05-31T10:25:02.197Z,45.45
2018-05-31T10:27:31.481Z,43.80
2018-05-31T10:30:02.759Z,42.27
2018-05-31T10:32:31.861Z,43.87
2018-05-31T10:35:01.405Z,46.45
2018-05-31T10:37:33.096Z,45.52
2018-05-31T10:40:02.239Z,47.40
2018-05-31T10:42:31.242Z,45.83
2018-05-31T10:45:00.682Z,48.02
2018-05-31T10:47:30.135Z,45.33
2018-05-31T10:49:59.436Z,46.70
2018-05-31T10:52:31.463Z,44.73
2018-05-31T10:55:00.955Z,44.85
2018-05-31T10:57:35.211Z,45.20
2018-05-31T11:00:04.718Z,49.08
2018-05-31T11:02:35.525Z,48.98
2018-05-31T11:05:04.890Z,52.65
2018-05-31T11:07:35.051Z,49.85
2018-05-31T11:10:04.793Z,51.63
2018-05-31T11:12:36.459Z,48.60
2018-05-31T11:15:05.628Z,51.37
2018-05-31T11:17:34.951Z,52.90
2018-05-31T11:20:04.374Z,52.17
2018-05-31T11:22:33.644Z,53.40
2018-05-31T11:25:03.104Z,53.95
2018-05-31T11:27:32.907Z,54.53
2018-05-31T11:30:05.007Z,52.80
2018-05-31T11:32:37.864Z,52.48
2018-05-31T11:35:07.213Z,50.58
2018-05-31T11:37:36.791Z,46.88
2018-05-31T11:40:05.990Z,44.83
2018-05-31T11:42:35.949Z,44.27
2018-05-31T11:45:05.554Z,40.88
2018-05-31T11:47:34.509Z,40.23
2018-05-31T11:50:04.064Z,39.27
2018-05-31T11:52:33.873Z,37.23
2018-05-31T11:55:03.399Z,34.78
2018-05-31T11:57:36.242Z,32.98
2018-05-31T12:00:10.180Z,31.12
2018-05-31T12:02:39.284Z,28.87
2018-05-31T12:05:10.427Z,25.12
2018-05-31T12:07:39.597Z,22.80
2018-05-31T12:10:08.735Z,21.52
2018-05-31T12:12:40.431Z,22.02
2018-05-31T12:15:07.266Z,19.85
2018-05-31T12:17:39.300Z,18.82
2018-05-31T12:20:08.267Z,18.45
2018-05-31T12:22:37.447Z,18.67
2018-05-31T12:25:06.481Z,18.27
2018-05-31T12:27:35.593Z,18.85
2018-05-31T12:30:06.724Z,16.77
2018-05-31T12:32:37.573Z,18.70
2018-05-31T12:35:09.946Z,16.95
2018-05-31T12:37:39.046Z,18.50
2018-05-31T12:40:11.777Z,19.98
2018-05-31T12:42:41.197Z,18.05
2018-05-31T12:45:14.818Z,16.90
2018-05-31T12:47:43.986Z,17.15
2018-05-31T12:50:13.211Z,14.80
2018-05-31T12:52:42.361Z,14.15
2018-05-31T12:55:14.740Z,13.93
2018-05-31T12:57:43.681Z,13.75
2018-05-31T13:00:13.066Z,12.63
2018-05-31T13:02:41.991Z,11.88
2018-05-31T13:05:11.359Z,11.70
2018-05-31T13:07:40.490Z,12.58
2018-05-31T13:10:09.867Z,12.65
2018-05-31T13:12:39.061Z,9.65
2018-05-31T13:15:11.326Z,11.90
2018-05-31T13:17:40.671Z,11.75
2018-05-31T13:20:09.973Z,14.58
2018-05-31T13:22:41.658Z,12.73
2018-05-31T13:25:11.065Z,13.75
2018-05-31T13:27:40.189Z,12.82
2018-05-31T13:30:11.652Z,14.13
2018-05-31T13:32:40.761Z,14.58
2018-05-31T13:35:09.964Z,13.10
2018-05-31T13:37:41.759Z,12.33
2018-05-31T13:40:10.653Z,13.95
2018-05-31T13:42:40.153Z,17.73
2018-05-31T13:45:08.929Z,16.42
2018-05-31T13:47:38.106Z,18.73
2018-05-31T13:50:07.118Z,18.00
2018-05-31T13:52:36.322Z,18.30
2018-05-31T13:55:05.593Z,14.10
2018-05-31T13:57:35.201Z,11.30
2018-05-31T14:00:04.377Z,10.45
2018-05-31T14:02:33.445Z,11.83
2018-05-31T14:05:05.019Z,10.53
2018-05-31T14:07:34.631Z,10.68
2018-05-31T14:10:03.870Z,12.73
2018-05-31T14:12:35.602Z,12.70
2018-05-31T14:15:04.723Z,11.18
2018-05-31T14:17:34.156Z,10.65
2018-05-31T14:20:03.763Z,10.90
2018-05-31T14:22:33.035Z,10.82
2018-05-31T14:25:02.223Z,10.05
2018-05-31T14:27:31.373Z,12.10
2018-05-31T14:30:00.786Z,10.63
2018-05-31T14:32:32.425Z,10.18
2018-05-31T14:35:01.478Z,11.40
2018-05-31T14:37:30.634Z,10.72
2018-05-31T14:40:02.279Z,10.82
2018-05-31T14:42:31.466Z,11.50
2018-05-31T14:45:01.069Z,10.95
2018-05-31T14:47:30.404Z,12.15
2018-05-31T14:50:00.076Z,13.18
2018-05-31T14:52:29.218Z,11.55
2018-05-31T14:55:14.591Z,12.73
2018-05-31T14:57:43.451Z,15.95
2018-05-31T15:00:12.361Z,18.55
2018-05-31T15:02:41.171Z,17.42
2018-05-31T15:05:10.020Z,14.73
2018-05-31T15:07:38.910Z,16.10
2018-05-31T15:10:07.786Z,14.60
2018-05-31T15:12:36.655Z,16.00
2018-05-31T15:15:05.519Z,15.53
2018-05-31T15:17:34.373Z,13.95
2018-05-31T15:20:03.256Z,12.95
2018-05-31T15:22:32.118Z,17.67
2018-05-31T15:25:00.974Z,15.90
2018-05-31T15:27:29.812Z,14.65
2018-05-31T15:29:58.685Z,15.70
2018-05-31T15:32:27.518Z,16.23
2018-05-31T15:34:56.451Z,14.73
2018-05-31T15:37:25.294Z,14.10
2018-05-31T15:39:54.161Z,14.07
2018-05-31T15:42:23.068Z,14.47
2018-05-31T15:44:51.908Z,14.03
2018-05-31T15:47:20.787Z,14.50
2018-05-31T15:49:49.630Z,14.18
2018-05-31T15:52:18.538Z,14.90
2018-05-31T15:54:47.410Z,13.98
2018-05-31T15:57:16.290Z,13.47
2018-05-31T15:59:45.161Z,15.63
2018-05-31T16:02:13.993Z,12.88
2018-05-31T16:04:42.857Z,12.40
2018-05-31T16:07:11.667Z,12.35
2018-05-31T16:09:40.524Z,13.38
2018-05-31T16:12:09.333Z,12.27
2018-05-31T16:14:38.171Z,14.70
2018-05-31T16:17:07.020Z,12.58
2018-05-31T16:19:35.890Z,12.33
2018-05-31T16:22:04.753Z,12.50
2018-05-31T16:24:33.595Z,12.93
2018-05-31T16:27:02.428Z,12.77
2018-05-31T16:29:31.286Z,12.40
2018-05-31T16:32:00.149Z,13.10
2018-05-31T16:34:28.995Z,14.93
2018-05-31T16:36:57.861Z,12.50
2018-05-31T16:39:26.734Z,12.88
2018-05-31T16:41:55.624Z,14.13
2018-05-31T16:44:24.502Z,14.55
2018-05-31T16:46:53.380Z,14.07
2018-05-31T16:49:22.210Z,13.03
2018-05-31T16:51:51.068Z,13.43
2018-05-31T16:54:19.910Z,12.55
2018-05-31T16:56:48.772Z,12.88
2018-05-31T16:59:17.649Z,10.63
2018-05-31T17:01:46.451Z,9.55
2018-05-31T17:04:15.311Z,8.90
2018-05-31T17:06:44.159Z,8.60
2018-05-31T17:09:13.039Z,8.45
2018-05-31T17:11:41.858Z,9.15
2018-05-31T17:14:10.770Z,11.10
2018-05-31T17:16:39.622Z,9.23
2018-05-31T17:19:08.477Z,8.25
2018-05-31T17:21:37.329Z,7.10
2018-05-31T17:24:06.160Z,8.53
2018-05-31T17:26:35.023Z,6.90
2018-05-31T17:29:03.945Z,7.83
2018-05-31T17:31:32.811Z,8.78
2018-05-31T17:34:01.668Z,6.67
2018-05-31T17:36:30.531Z,8.18
2018-05-31T17:38:59.419Z,6.97
2018-05-31T17:41:28.277Z,6.58
2018-05-31T17:43:57.113Z,6.83
2018-05-31T17:46:25.952Z,6.65
2018-05-31T17:48:54.780Z,7.72
2018-05-31T17:51:23.619Z,7.03
2018-05-31T17:53:52.458Z,8.70
2018-05-31T17:56:21.311Z,7.70
2018-05-31T17:58:50.121Z,9.88
2018-05-31T18:01:18.965Z,7.65
2018-05-31T18:03:47.786Z,7.65
2018-05-31T18:06:16.644Z,9.73
2018-05-31T18:08:45.487Z,7.42
2018-05-31T18:11:14.336Z,8.33
2018-05-31T18:13:43.178Z,7.13
2018-05-31T18:16:12.044Z,8.07
2018-05-31T18:18:40.880Z,8.03
2018-05-31T18:21:09.712Z,7.60
2018-05-31T18:23:38.533Z,8.65
2018-05-31T18:26:07.401Z,10.63
2018-05-31T18:28:36.228Z,11.18
2018-05-31T18:31:05.461Z,9.30
2018-05-31T18:33:37.480Z,9.90
2018-05-31T18:36:06.361Z,9.50
2018-05-31T18:38:35.203Z,9.10
2018-05-31T18:41:04.075Z,8.67
2018-05-31T18:43:32.947Z,8.47
2018-05-31T18:46:01.814Z,8.33
2018-05-31T18:48:30.615Z,8.80
2018-05-31T18:50:59.463Z,8.70
2018-05-31T18:53:28.307Z,9.40
2018-05-31T18:55:57.147Z,9.10
2018-05-31T18:58:26.007Z,10.07
2018-05-31T19:00:54.858Z,9.23
2018-05-31T19:03:23.738Z,9.67
2018-05-31T19:05:52.606Z,10.43
2018-05-31T19:08:21.597Z,9.90
2018-05-31T19:10:50.826Z,9.40
2018-05-31T19:13:38.807Z,10.13
2018-05-31T19:16:07.685Z,10.45
2018-05-31T19:18:55.680Z,11.15
2018-05-31T19:21:24.560Z,10.53
2018-05-31T19:23:53.389Z,9.73
2018-05-31T19:26:22.233Z,10.23
2018-05-31T19:28:51.047Z,9.88
2018-05-31T19:31:19.879Z,10.17
2018-05-31T19:33:48.716Z,10.70
2018-05-31T19:36:51.777Z,10.43
2018-05-31T19:39:20.714Z,11.78
2018-05-31T19:41:49.616Z,10.53
2018-05-31T19:44:37.584Z,11.63
2018-05-31T19:47:06.457Z,10.83
2018-05-31T19:49:35.290Z,11.50
2018-05-31T19:52:23.277Z,10.70
2018-05-31T19:54:52.133Z,10.67
2018-05-31T19:57:20.966Z,10.90
2018-05-31T20:00:07.773Z,11.37
2018-05-31T20:02:54.659Z,12.03
2018-05-31T20:05:23.497Z,12.17
2018-05-31T20:07:52.338Z,13.07
2018-05-31T20:10:21.263Z,13.40
2018-05-31T20:12:50.029Z,15.45
2018-05-31T20:15:18.890Z,11.83
2018-05-31T20:17:47.753Z,14.83
2018-05-31T20:20:16.593Z,13.23
2018-05-31T20:22:45.458Z,12.43
2018-05-31T20:25:14.304Z,12.83
2018-05-31T20:27:43.168Z,12.63
2018-05-31T20:30:12.055Z,12.57
2018-05-31T20:32:40.945Z,12.37
2018-05-31T20:35:09.812Z,13.27
2018-05-31T20:37:38.650Z,13.20
2018-05-31T20:40:07.546Z,12.60
2018-05-31T20:42:36.405Z,12.20
2018-05-31T20:45:05.301Z,12.37
2018-05-31T20:47:34.165Z,11.73
2018-05-31T20:50:03.019Z,13.60
2018-05-31T20:52:31.886Z,13.13
2018-05-31T20:55:00.741Z,13.97
2018-05-31T20:57:29.581Z,12.07
2018-05-31T20:59:58.456Z,14.13
2018-05-31T21:02:27.272Z,14.13
2018-05-31T21:04:56.137Z,14.13
2018-05-31T21:07:25.013Z,13.50
2018-05-31T21:09:53.871Z,13.30
2018-05-31T21:12:22.711Z,14.83
2018-05-31T21:14:51.583Z,13.97
2018-05-31T21:17:20.433Z,13.90
2018-05-31T21:19:49.262Z,14.33
2018-05-31T21:22:18.106Z,13.30
2018-05-31T21:24:46.972Z,14.03
2018-05-31T21:27:15.842Z,13.37
2018-05-31T21:29:44.669Z,14.00
2018-05-31T21:32:13.509Z,14.30
2018-05-31T21:34:42.379Z,14.43
2018-05-31T21:37:11.298Z,14.17
2018-05-31T21:39:40.088Z,15.03
2018-05-31T21:42:08.950Z,15.03
2018-05-31T21:44:37.841Z,14.70
2018-05-31T21:47:06.679Z,15.37
2018-05-31T21:49:35.541Z,14.67
2018-05-31T21:52:04.412Z,15.30
2018-05-31T21:54:33.234Z,15.30
2018-05-31T21:57:02.106Z,15.40
2018-05-31T21:59:30.947Z,15.70
2018-05-31T22:01:59.791Z,15.20
2018-05-31T22:04:28.638Z,16.40
2018-05-31T22:06:57.473Z,16.23
2018-05-31T22:09:26.362Z,15.60
2018-05-31T22:11:55.200Z,15.00
2018-05-31T22:14:24.065Z,17.17
2018-05-31T22:16:52.917Z,17.60
2018-05-31T22:19:21.748Z,16.43
2018-05-31T22:21:50.549Z,17.53
2018-05-31T22:24:19.376Z,17.13
2018-05-31T22:26:48.223Z,17.07
2018-05-31T22:29:17.062Z,16.30
2018-05-31T22:31:45.948Z,16.27
2018-05-31T22:34:14.779Z,18.07
2018-05-31T22:36:43.640Z,17.00
2018-05-31T22:39:12.479Z,16.40
2018-05-31T22:41:41.312Z,18.85
2018-05-31T22:44:10.148Z,16.07
2018-05-31T22:46:38.985Z,17.97
2018-05-31T22:49:07.838Z,17.53
2018-05-31T22:51:36.689Z,16.67
2018-05-31T22:54:05.541Z,17.07
2018-05-31T22:56:34.392Z,17.00
2018-05-31T22:59:03.256Z,16.97
2018-05-31T23:01:32.097Z,17.10
2018-05-31T23:04:00.967Z,17.53
2018-05-31T23:06:29.827Z,17.57
2018-05-31T23:08:58.657Z,16.87
2018-05-31T23:11:27.510Z,16.87
2018-05-31T23:13:56.344Z,17.07
2018-05-31T23:16:25.207Z,17.53
2018-05-31T23:18:54.084Z,19.03
2018-05-31T23:21:22.932Z,18.77
2018-05-31T23:23:51.786Z,21.20
2018-05-31T23:26:20.631Z,18.07
2018-05-31T23:28:49.441Z,17.57
2018-05-31T23:31:18.328Z,17.10
2018-05-31T23:33:47.213Z,17.40
2018-05-31T23:36:16.060Z,17.73
2018-05-31T23:38:44.912Z,20.15
2018-05-31T23:41:13.769Z,17.17
2018-05-31T23:43:42.646Z,17.20
2018-05-31T23:46:11.485Z,17.83
2018-05-31T23:48:40.351Z,17.90
2018-05-31T23:51:09.170Z,17.70
2018-05-31T23:53:38.031Z,18.27
2018-05-31T23:56:06.884Z,17.50
2018-05-31T23:58:35.744Z,17.50
